sensor_id;sensor_type;location;lat;lon;timestamp;temperature;humidity
51035;DHT22;37062;52.546;13.230;2023-07-13T00:00:07;21.90;99.90
51035;DHT22;37062;52.546;13.230;2023-07-13T00:02:40;21.80;99.90
51035;DHT22;37062;52.546;13.230;2023-07-13T00:05:08;21.80;99.90
51035;DHT22;37062;52.546;13.230;2023-07-13T00:07:37;21.80;99.90
51035;DHT22;37062;52.546;13.230;2023-07-13T00:10:06;21.80;99.90
51035;DHT22;37062;52.546;13.230;2023-07-13T00:12:36;21.70;99.90
51035;DHT22;37062;52.546;13.230;2023-07-13T00:15:14;21.70;99.90
51035;DHT22;37062;52.546;13.230;2023-07-13T00:17:43;21.60;99.90
51035;DHT22;37062;52.546;13.230;2023-07-13T00:20:12;21.60;99.90
51035;DHT22;37062;52.546;13.230;2023-07-13T00:22:40;21.60;99.90
51035;DHT22;37062;52.546;13.230;2023-07-13T00:25:09;21.50;99.90
51035;DHT22;37062;52.546;13.230;2023-07-13T00:27:38;21.40;99.90
51035;DHT22;37062;52.546;13.230;2023-07-13T00:30:07;21.40;99.90
51035;DHT22;37062;52.546;13.230;2023-07-13T00:32:38;21.40;99.90
51035;DHT22;37062;52.546;13.230;2023-07-13T00:35:07;21.40;99.90
51035;DHT22;37062;52.546;13.230;2023-07-13T00:37:36;21.40;99.90
51035;DHT22;37062;52.546;13.230;2023-07-13T00:40:06;21.30;99.90
51035;DHT22;37062;52.546;13.230;2023-07-13T00:42:35;21.30;99.90
51035;DHT22;37062;52.546;13.230;2023-07-13T00:45:05;21.20;99.90
51035;DHT22;37062;52.546;13.230;2023-07-13T00:47:35;21.20;99.90
51035;DHT22;37062;52.546;13.230;2023-07-13T00:50:06;21.10;99.90
51035;DHT22;37062;52.546;13.230;2023-07-13T00:52:37;21.10;99.90
51035;DHT22;37062;52.546;13.230;2023-07-13T00:55:07;21.10;99.90
51035;DHT22;37062;52.546;13.230;2023-07-13T00:57:37;21.00;99.90
51035;DHT22;37062;52.546;13.230;2023-07-13T01:00:08;21.00;99.90
51035;DHT22;37062;52.546;13.230;2023-07-13T01:02:42;20.90;99.90
51035;DHT22;37062;52.546;13.230;2023-07-13T01:05:19;20.90;99.90
51035;DHT22;37062;52.546;13.230;2023-07-13T01:07:50;20.80;99.90
51035;DHT22;37062;52.546;13.230;2023-07-13T01:10:21;20.80;99.90
51035;DHT22;37062;52.546;13.230;2023-07-13T01:12:50;20.80;99.90
51035;DHT22;37062;52.546;13.230;2023-07-13T01:15:36;20.70;99.90
51035;DHT22;37062;52.546;13.230;2023-07-13T01:18:05;20.70;99.90
51035;DHT22;37062;52.546;13.230;2023-07-13T01:20:36;20.70;99.90
51035;DHT22;37062;52.546;13.230;2023-07-13T01:23:08;20.70;99.90
51035;DHT22;37062;52.546;13.230;2023-07-13T01:25:37;20.60;99.90
51035;DHT22;37062;52.546;13.230;2023-07-13T01:28:07;20.60;99.90
51035;DHT22;37062;52.546;13.230;2023-07-13T01:30:38;20.50;99.90
51035;DHT22;37062;52.546;13.230;2023-07-13T01:33:07;20.50;99.90
51035;DHT22;37062;52.546;13.230;2023-07-13T01:35:36;20.60;99.90
51035;DHT22;37062;52.546;13.230;2023-07-13T01:38:06;20.50;99.90
51035;DHT22;37062;52.546;13.230;2023-07-13T01:40:36;20.50;99.90
51035;DHT22;37062;52.546;13.230;2023-07-13T01:43:05;20.50;99.90
51035;DHT22;37062;52.546;13.230;2023-07-13T01:45:33;20.40;99.90
51035;DHT22;37062;52.546;13.230;2023-07-13T01:48:03;20.30;99.90
51035;DHT22;37062;52.546;13.230;2023-07-13T01:50:33;20.30;99.90
51035;DHT22;37062;52.546;13.230;2023-07-13T01:53:02;20.30;99.90
51035;DHT22;37062;52.546;13.230;2023-07-13T01:55:33;20.20;99.90
51035;DHT22;37062;52.546;13.230;2023-07-13T01:58:02;20.10;99.90
51035;DHT22;37062;52.546;13.230;2023-07-13T02:00:31;20.10;99.90
51035;DHT22;37062;52.546;13.230;2023-07-13T02:03:01;20.10;99.90
51035;DHT22;37062;52.546;13.230;2023-07-13T02:05:31;20.10;99.90
51035;DHT22;37062;52.546;13.230;2023-07-13T02:07:59;20.00;99.90
51035;DHT22;37062;52.546;13.230;2023-07-13T02:10:32;20.10;99.90
51035;DHT22;37062;52.546;13.230;2023-07-13T02:13:00;20.00;99.90
51035;DHT22;37062;52.546;13.230;2023-07-13T02:15:28;20.00;99.90
51035;DHT22;37062;52.546;13.230;2023-07-13T02:17:56;20.00;99.90
51035;DHT22;37062;52.546;13.230;2023-07-13T02:20:25;20.00;99.90
51035;DHT22;37062;52.546;13.230;2023-07-13T02:22:54;19.90;99.90
51035;DHT22;37062;52.546;13.230;2023-07-13T02:25:22;19.90;99.90
51035;DHT22;37062;52.546;13.230;2023-07-13T02:27:53;19.90;99.90
51035;DHT22;37062;52.546;13.230;2023-07-13T02:30:22;19.90;99.90
51035;DHT22;37062;52.546;13.230;2023-07-13T02:32:53;19.90;99.90
51035;DHT22;37062;52.546;13.230;2023-07-13T02:35:22;19.90;99.90
51035;DHT22;37062;52.546;13.230;2023-07-13T02:37:50;19.90;99.90
51035;DHT22;37062;52.546;13.230;2023-07-13T02:40:18;19.90;99.90
51035;DHT22;37062;52.546;13.230;2023-07-13T02:42:47;19.90;99.90
51035;DHT22;37062;52.546;13.230;2023-07-13T02:45:17;19.90;99.90
51035;DHT22;37062;52.546;13.230;2023-07-13T02:47:45;19.90;99.90
51035;DHT22;37062;52.546;13.230;2023-07-13T02:50:13;19.90;99.90
51035;DHT22;37062;52.546;13.230;2023-07-13T02:52:41;19.90;99.90
51035;DHT22;37062;52.546;13.230;2023-07-13T02:55:09;20.00;99.90
51035;DHT22;37062;52.546;13.230;2023-07-13T02:57:38;19.90;99.90
51035;DHT22;37062;52.546;13.230;2023-07-13T03:00:07;19.90;99.90
51035;DHT22;37062;52.546;13.230;2023-07-13T03:02:37;19.80;99.90
51035;DHT22;37062;52.546;13.230;2023-07-13T03:05:06;19.70;99.90
51035;DHT22;37062;52.546;13.230;2023-07-13T03:07:36;19.70;99.90
51035;DHT22;37062;52.546;13.230;2023-07-13T03:10:05;19.70;99.90
51035;DHT22;37062;52.546;13.230;2023-07-13T03:12:42;19.60;99.90
51035;DHT22;37062;52.546;13.230;2023-07-13T03:15:17;19.60;99.90
51035;DHT22;37062;52.546;13.230;2023-07-13T03:17:48;19.60;99.90
51035;DHT22;37062;52.546;13.230;2023-07-13T03:20:16;19.70;99.90
51035;DHT22;37062;52.546;13.230;2023-07-13T03:22:44;19.60;99.90
51035;DHT22;37062;52.546;13.230;2023-07-13T03:25:13;19.60;99.90
51035;DHT22;37062;52.546;13.230;2023-07-13T03:27:42;19.60;99.90
51035;DHT22;37062;52.546;13.230;2023-07-13T03:30:11;19.60;99.90
51035;DHT22;37062;52.546;13.230;2023-07-13T03:32:42;19.60;99.90
51035;DHT22;37062;52.546;13.230;2023-07-13T03:35:11;19.60;99.90
51035;DHT22;37062;52.546;13.230;2023-07-13T03:37:39;19.70;99.90
51035;DHT22;37062;52.546;13.230;2023-07-13T03:40:14;19.70;99.90
51035;DHT22;37062;52.546;13.230;2023-07-13T03:42:44;19.70;99.90
51035;DHT22;37062;52.546;13.230;2023-07-13T03:45:15;19.70;99.90
51035;DHT22;37062;52.546;13.230;2023-07-13T03:47:43;19.80;99.90
51035;DHT22;37062;52.546;13.230;2023-07-13T03:50:13;19.90;99.90
51035;DHT22;37062;52.546;13.230;2023-07-13T03:52:41;19.90;99.90
51035;DHT22;37062;52.546;13.230;2023-07-13T03:55:10;19.90;99.90
51035;DHT22;37062;52.546;13.230;2023-07-13T03:57:39;19.90;99.90
51035;DHT22;37062;52.546;13.230;2023-07-13T04:00:09;20.00;99.90
51035;DHT22;37062;52.546;13.230;2023-07-13T04:02:44;20.20;99.90
51035;DHT22;37062;52.546;13.230;2023-07-13T04:05:15;20.40;99.90
51035;DHT22;37062;52.546;13.230;2023-07-13T04:07:45;20.60;99.90
51035;DHT22;37062;52.546;13.230;2023-07-13T04:10:13;20.90;99.90
51035;DHT22;37062;52.546;13.230;2023-07-13T04:12:41;21.10;99.90
51035;DHT22;37062;52.546;13.230;2023-07-13T04:15:10;21.50;99.90
51035;DHT22;37062;52.546;13.230;2023-07-13T04:17:38;21.80;99.90
51035;DHT22;37062;52.546;13.230;2023-07-13T04:20:07;22.10;99.90
51035;DHT22;37062;52.546;13.230;2023-07-13T04:22:36;22.30;99.90
51035;DHT22;37062;52.546;13.230;2023-07-13T04:25:06;22.60;99.90
51035;DHT22;37062;52.546;13.230;2023-07-13T04:27:34;23.00;99.90
51035;DHT22;37062;52.546;13.230;2023-07-13T04:30:02;23.40;99.90
51035;DHT22;37062;52.546;13.230;2023-07-13T04:32:30;23.80;99.90
51035;DHT22;37062;52.546;13.230;2023-07-13T04:34:59;24.10;99.90
51035;DHT22;37062;52.546;13.230;2023-07-13T04:37:27;24.50;99.90
51035;DHT22;37062;52.546;13.230;2023-07-13T04:39:57;24.80;99.90
51035;DHT22;37062;52.546;13.230;2023-07-13T04:42:25;24.80;99.90
51035;DHT22;37062;52.546;13.230;2023-07-13T04:44:54;24.70;99.90
51035;DHT22;37062;52.546;13.230;2023-07-13T04:47:22;24.50;99.90
51035;DHT22;37062;52.546;13.230;2023-07-13T04:49:50;24.50;99.90
51035;DHT22;37062;52.546;13.230;2023-07-13T04:52:18;24.40;99.90
51035;DHT22;37062;52.546;13.230;2023-07-13T04:54:46;24.30;99.90
51035;DHT22;37062;52.546;13.230;2023-07-13T04:57:16;24.20;99.90
51035;DHT22;37062;52.546;13.230;2023-07-13T04:59:45;24.20;99.90
51035;DHT22;37062;52.546;13.230;2023-07-13T05:02:13;23.90;99.90
51035;DHT22;37062;52.546;13.230;2023-07-13T05:04:41;23.80;99.90
51035;DHT22;37062;52.546;13.230;2023-07-13T05:07:10;23.70;99.90
51035;DHT22;37062;52.546;13.230;2023-07-13T05:09:38;23.50;99.90
51035;DHT22;37062;52.546;13.230;2023-07-13T05:12:08;23.40;99.90
51035;DHT22;37062;52.546;13.230;2023-07-13T05:14:37;23.30;99.90
51035;DHT22;37062;52.546;13.230;2023-07-13T05:17:05;23.30;99.90
51035;DHT22;37062;52.546;13.230;2023-07-13T05:19:33;23.30;99.90
51035;DHT22;37062;52.546;13.230;2023-07-13T05:22:02;23.20;99.90
51035;DHT22;37062;52.546;13.230;2023-07-13T05:24:30;23.20;99.90
51035;DHT22;37062;52.546;13.230;2023-07-13T05:26:59;23.30;99.90
51035;DHT22;37062;52.546;13.230;2023-07-13T05:29:27;23.40;99.90
51035;DHT22;37062;52.546;13.230;2023-07-13T05:31:57;23.40;99.90
51035;DHT22;37062;52.546;13.230;2023-07-13T05:34:25;23.60;99.90
51035;DHT22;37062;52.546;13.230;2023-07-13T05:36:53;23.80;99.90
51035;DHT22;37062;52.546;13.230;2023-07-13T05:39:21;24.20;99.90
51035;DHT22;37062;52.546;13.230;2023-07-13T05:41:49;24.60;99.90
51035;DHT22;37062;52.546;13.230;2023-07-13T05:44:18;24.80;99.90
51035;DHT22;37062;52.546;13.230;2023-07-13T05:46:46;24.90;99.90
51035;DHT22;37062;52.546;13.230;2023-07-13T05:49:16;25.10;99.90
51035;DHT22;37062;52.546;13.230;2023-07-13T05:51:44;25.20;99.90
51035;DHT22;37062;52.546;13.230;2023-07-13T05:54:12;25.30;99.90
51035;DHT22;37062;52.546;13.230;2023-07-13T05:56:40;25.30;99.90
51035;DHT22;37062;52.546;13.230;2023-07-13T05:59:08;25.50;99.90
51035;DHT22;37062;52.546;13.230;2023-07-13T06:01:37;25.70;99.90
51035;DHT22;37062;52.546;13.230;2023-07-13T06:04:05;25.80;99.90
51035;DHT22;37062;52.546;13.230;2023-07-13T06:06:34;25.90;99.90
51035;DHT22;37062;52.546;13.230;2023-07-13T06:09:03;26.20;99.90
51035;DHT22;37062;52.546;13.230;2023-07-13T06:11:31;26.50;99.90
51035;DHT22;37062;52.546;13.230;2023-07-13T06:13:59;26.60;99.90
51035;DHT22;37062;52.546;13.230;2023-07-13T06:16:27;26.80;99.90
51035;DHT22;37062;52.546;13.230;2023-07-13T06:18:55;26.80;99.90
51035;DHT22;37062;52.546;13.230;2023-07-13T06:21:23;27.00;99.90
51035;DHT22;37062;52.546;13.230;2023-07-13T06:23:53;27.40;99.90
51035;DHT22;37062;52.546;13.230;2023-07-13T06:26:21;27.50;99.90
51035;DHT22;37062;52.546;13.230;2023-07-13T06:28:50;27.70;99.90
51035;DHT22;37062;52.546;13.230;2023-07-13T06:31:18;27.90;99.90
51035;DHT22;37062;52.546;13.230;2023-07-13T06:33:46;28.10;99.90
51035;DHT22;37062;52.546;13.230;2023-07-13T06:36:15;28.30;99.90
51035;DHT22;37062;52.546;13.230;2023-07-13T06:38:43;28.40;99.90
51035;DHT22;37062;52.546;13.230;2023-07-13T06:41:12;28.80;99.90
51035;DHT22;37062;52.546;13.230;2023-07-13T06:43:41;29.40;99.90
51035;DHT22;37062;52.546;13.230;2023-07-13T06:46:09;29.70;99.90
51035;DHT22;37062;52.546;13.230;2023-07-13T06:48:38;30.00;99.90
51035;DHT22;37062;52.546;13.230;2023-07-13T06:51:06;30.20;99.90
51035;DHT22;37062;52.546;13.230;2023-07-13T06:53:34;30.50;99.90
51035;DHT22;37062;52.546;13.230;2023-07-13T06:56:03;30.50;99.90
51035;DHT22;37062;52.546;13.230;2023-07-13T06:58:34;30.50;99.90
51035;DHT22;37062;52.546;13.230;2023-07-13T07:01:02;30.60;99.90
51035;DHT22;37062;52.546;13.230;2023-07-13T07:03:33;30.30;99.90
51035;DHT22;37062;52.546;13.230;2023-07-13T07:06:03;30.10;99.90
51035;DHT22;37062;52.546;13.230;2023-07-13T07:08:35;30.00;99.90
51035;DHT22;37062;52.546;13.230;2023-07-13T07:11:03;29.80;99.90
51035;DHT22;37062;52.546;13.230;2023-07-13T07:13:32;29.70;99.90
51035;DHT22;37062;52.546;13.230;2023-07-13T07:16:00;29.60;99.90
51035;DHT22;37062;52.546;13.230;2023-07-13T07:18:29;29.60;99.90
51035;DHT22;37062;52.546;13.230;2023-07-13T07:20:57;29.50;99.90
51035;DHT22;37062;52.546;13.230;2023-07-13T07:23:25;29.50;99.90
51035;DHT22;37062;52.546;13.230;2023-07-13T07:25:53;29.40;99.90
51035;DHT22;37062;52.546;13.230;2023-07-13T07:28:21;29.50;99.90
51035;DHT22;37062;52.546;13.230;2023-07-13T07:30:55;29.60;99.90
51035;DHT22;37062;52.546;13.230;2023-07-13T07:33:26;29.80;99.90
51035;DHT22;37062;52.546;13.230;2023-07-13T07:35:55;29.80;99.90
51035;DHT22;37062;52.546;13.230;2023-07-13T07:38:26;29.80;99.90
51035;DHT22;37062;52.546;13.230;2023-07-13T07:40:54;29.90;99.90
51035;DHT22;37062;52.546;13.230;2023-07-13T07:43:25;30.20;99.90
51035;DHT22;37062;52.546;13.230;2023-07-13T07:45:55;30.30;99.90
51035;DHT22;37062;52.546;13.230;2023-07-13T07:48:23;30.10;99.90
51035;DHT22;37062;52.546;13.230;2023-07-13T07:50:51;30.10;99.90
51035;DHT22;37062;52.546;13.230;2023-07-13T07:53:20;30.20;99.90
51035;DHT22;37062;52.546;13.230;2023-07-13T07:55:48;30.30;99.90
51035;DHT22;37062;52.546;13.230;2023-07-13T07:58:19;30.40;99.90
51035;DHT22;37062;52.546;13.230;2023-07-13T08:00:50;30.40;99.90
51035;DHT22;37062;52.546;13.230;2023-07-13T08:03:22;30.50;99.90
51035;DHT22;37062;52.546;13.230;2023-07-13T08:05:53;30.60;99.90
51035;DHT22;37062;52.546;13.230;2023-07-13T08:08:25;30.80;99.90
51035;DHT22;37062;52.546;13.230;2023-07-13T08:10:53;31.00;99.90
51035;DHT22;37062;52.546;13.230;2023-07-13T08:13:41;31.10;99.90
51035;DHT22;37062;52.546;13.230;2023-07-13T08:16:10;31.10;99.90
51035;DHT22;37062;52.546;13.230;2023-07-13T08:18:40;31.00;99.90
51035;DHT22;37062;52.546;13.230;2023-07-13T08:21:09;30.90;99.90
51035;DHT22;37062;52.546;13.230;2023-07-13T08:23:37;30.60;99.90
51035;DHT22;37062;52.546;13.230;2023-07-13T08:26:06;30.70;99.90
51035;DHT22;37062;52.546;13.230;2023-07-13T08:28:34;30.80;99.90
51035;DHT22;37062;52.546;13.230;2023-07-13T08:31:02;30.90;99.90
51035;DHT22;37062;52.546;13.230;2023-07-13T08:33:31;30.80;99.90
51035;DHT22;37062;52.546;13.230;2023-07-13T08:36:01;31.00;99.90
51035;DHT22;37062;52.546;13.230;2023-07-13T08:38:29;31.30;99.90
51035;DHT22;37062;52.546;13.230;2023-07-13T08:40:57;31.40;99.90
51035;DHT22;37062;52.546;13.230;2023-07-13T08:43:28;31.40;99.90
51035;DHT22;37062;52.546;13.230;2023-07-13T08:46:04;31.40;99.90
51035;DHT22;37062;52.546;13.230;2023-07-13T08:48:36;31.30;99.90
51035;DHT22;37062;52.546;13.230;2023-07-13T08:51:20;31.50;99.90
51035;DHT22;37062;52.546;13.230;2023-07-13T08:53:55;32.20;99.90
51035;DHT22;37062;52.546;13.230;2023-07-13T08:56:28;32.90;99.90
51035;DHT22;37062;52.546;13.230;2023-07-13T08:58:58;33.30;99.90
51035;DHT22;37062;52.546;13.230;2023-07-13T09:01:31;33.60;99.90
51035;DHT22;37062;52.546;13.230;2023-07-13T09:04:07;33.60;99.90
51035;DHT22;37062;52.546;13.230;2023-07-13T09:06:49;33.70;99.90
51035;DHT22;37062;52.546;13.230;2023-07-13T09:09:26;34.00;99.90
51035;DHT22;37062;52.546;13.230;2023-07-13T09:12:07;34.00;99.90
51035;DHT22;37062;52.546;13.230;2023-07-13T09:14:42;34.20;99.90
51035;DHT22;37062;52.546;13.230;2023-07-13T09:17:17;34.40;99.90
51035;DHT22;37062;52.546;13.230;2023-07-13T09:19:49;34.20;99.90
51035;DHT22;37062;52.546;13.230;2023-07-13T09:22:21;34.40;99.90
51035;DHT22;37062;52.546;13.230;2023-07-13T09:24:55;34.50;99.90
51035;DHT22;37062;52.546;13.230;2023-07-13T09:27:29;34.40;99.90
51035;DHT22;37062;52.546;13.230;2023-07-13T09:30:07;34.30;99.90
51035;DHT22;37062;52.546;13.230;2023-07-13T09:32:42;34.30;99.90
51035;DHT22;37062;52.546;13.230;2023-07-13T09:35:11;34.30;99.90
51035;DHT22;37062;52.546;13.230;2023-07-13T09:37:44;34.20;99.90
51035;DHT22;37062;52.546;13.230;2023-07-13T09:40:20;34.10;99.90
51035;DHT22;37062;52.546;13.230;2023-07-13T09:42:50;34.00;99.90
51035;DHT22;37062;52.546;13.230;2023-07-13T09:45:27;33.80;99.90
51035;DHT22;37062;52.546;13.230;2023-07-13T09:48:03;33.60;99.90
51035;DHT22;37062;52.546;13.230;2023-07-13T09:50:32;33.50;99.90
51035;DHT22;37062;52.546;13.230;2023-07-13T09:53:01;33.30;99.90
51035;DHT22;37062;52.546;13.230;2023-07-13T09:55:32;33.10;99.90
51035;DHT22;37062;52.546;13.230;2023-07-13T09:58:04;32.90;99.90
51035;DHT22;37062;52.546;13.230;2023-07-13T10:00:34;32.70;99.90
51035;DHT22;37062;52.546;13.230;2023-07-13T10:03:04;32.70;99.90
51035;DHT22;37062;52.546;13.230;2023-07-13T10:05:42;32.70;99.90
51035;DHT22;37062;52.546;13.230;2023-07-13T10:08:25;32.70;99.90
51035;DHT22;37062;52.546;13.230;2023-07-13T10:10:59;32.80;99.90
51035;DHT22;37062;52.546;13.230;2023-07-13T10:13:32;32.70;99.90
51035;DHT22;37062;52.546;13.230;2023-07-13T10:16:01;32.50;99.90
51035;DHT22;37062;52.546;13.230;2023-07-13T10:18:38;32.40;99.90
51035;DHT22;37062;52.546;13.230;2023-07-13T10:21:12;32.20;99.90
51035;DHT22;37062;52.546;13.230;2023-07-13T10:23:48;31.90;99.90
51035;DHT22;37062;52.546;13.230;2023-07-13T10:26:22;32.00;99.90
51035;DHT22;37062;52.546;13.230;2023-07-13T10:28:54;32.00;99.90
51035;DHT22;37062;52.546;13.230;2023-07-13T10:31:24;31.80;99.90
51035;DHT22;37062;52.546;13.230;2023-07-13T10:33:53;31.60;99.90
51035;DHT22;37062;52.546;13.230;2023-07-13T10:36:29;31.50;99.90
51035;DHT22;37062;52.546;13.230;2023-07-13T10:39:02;31.30;99.90
51035;DHT22;37062;52.546;13.230;2023-07-13T10:41:41;31.00;99.90
51035;DHT22;37062;52.546;13.230;2023-07-13T10:44:18;30.90;99.90
51035;DHT22;37062;52.546;13.230;2023-07-13T10:46:48;30.80;99.90
51035;DHT22;37062;52.546;13.230;2023-07-13T10:49:17;30.70;99.90
51035;DHT22;37062;52.546;13.230;2023-07-13T10:51:46;30.60;99.90
51035;DHT22;37062;52.546;13.230;2023-07-13T10:54:18;30.60;99.90
51035;DHT22;37062;52.546;13.230;2023-07-13T10:56:51;30.60;99.90
51035;DHT22;37062;52.546;13.230;2023-07-13T10:59:25;30.60;99.90
51035;DHT22;37062;52.546;13.230;2023-07-13T11:01:56;30.60;99.90
51035;DHT22;37062;52.546;13.230;2023-07-13T11:04:26;30.60;99.90
51035;DHT22;37062;52.546;13.230;2023-07-13T11:06:59;30.40;99.90
51035;DHT22;37062;52.546;13.230;2023-07-13T11:09:40;30.40;99.90
51035;DHT22;37062;52.546;13.230;2023-07-13T11:12:28;30.40;99.90
51035;DHT22;37062;52.546;13.230;2023-07-13T11:15:11;30.30;99.90
51035;DHT22;37062;52.546;13.230;2023-07-13T11:17:50;30.30;99.90
51035;DHT22;37062;52.546;13.230;2023-07-13T11:20:36;30.30;99.90
51035;DHT22;37062;52.546;13.230;2023-07-13T11:23:27;30.30;99.90
51035;DHT22;37062;52.546;13.230;2023-07-13T11:25:58;30.20;99.90
51035;DHT22;37062;52.546;13.230;2023-07-13T11:28:31;30.20;99.90
51035;DHT22;37062;52.546;13.230;2023-07-13T11:31:14;30.20;99.90
51035;DHT22;37062;52.546;13.230;2023-07-13T11:33:52;30.20;99.90
51035;DHT22;37062;52.546;13.230;2023-07-13T11:36:21;30.20;99.90
51035;DHT22;37062;52.546;13.230;2023-07-13T11:38:58;30.10;99.90
51035;DHT22;37062;52.546;13.230;2023-07-13T11:41:31;30.20;99.90
51035;DHT22;37062;52.546;13.230;2023-07-13T11:44:12;30.20;99.90
51035;DHT22;37062;52.546;13.230;2023-07-13T11:46:45;30.30;99.90
51035;DHT22;37062;52.546;13.230;2023-07-13T11:49:19;30.30;99.90
51035;DHT22;37062;52.546;13.230;2023-07-13T11:51:51;30.20;99.90
51035;DHT22;37062;52.546;13.230;2023-07-13T11:54:25;30.10;99.90
51035;DHT22;37062;52.546;13.230;2023-07-13T11:56:58;30.10;99.90
51035;DHT22;37062;52.546;13.230;2023-07-13T11:59:30;30.20;99.90
51035;DHT22;37062;52.546;13.230;2023-07-13T12:02:00;30.30;99.90
51035;DHT22;37062;52.546;13.230;2023-07-13T12:04:32;30.30;99.90
51035;DHT22;37062;52.546;13.230;2023-07-13T12:07:07;30.20;99.90
51035;DHT22;37062;52.546;13.230;2023-07-13T12:09:36;30.20;99.90
51035;DHT22;37062;52.546;13.230;2023-07-13T12:12:11;30.20;99.90
51035;DHT22;37062;52.546;13.230;2023-07-13T12:14:40;30.00;99.90
51035;DHT22;37062;52.546;13.230;2023-07-13T12:17:15;29.90;99.90
51035;DHT22;37062;52.546;13.230;2023-07-13T12:19:44;29.80;99.90
51035;DHT22;37062;52.546;13.230;2023-07-13T12:22:15;29.80;99.90
51035;DHT22;37062;52.546;13.230;2023-07-13T12:24:44;29.90;99.90
51035;DHT22;37062;52.546;13.230;2023-07-13T12:27:20;29.80;99.90
51035;DHT22;37062;52.546;13.230;2023-07-13T12:29:51;29.60;99.90
51035;DHT22;37062;52.546;13.230;2023-07-13T12:32:20;29.60;99.90
51035;DHT22;37062;52.546;13.230;2023-07-13T12:34:53;29.60;99.90
51035;DHT22;37062;52.546;13.230;2023-07-13T12:37:23;29.60;99.90
51035;DHT22;37062;52.546;13.230;2023-07-13T12:39:52;29.60;99.90
51035;DHT22;37062;52.546;13.230;2023-07-13T12:42:24;29.60;99.90
51035;DHT22;37062;52.546;13.230;2023-07-13T12:44:56;29.70;99.90
51035;DHT22;37062;52.546;13.230;2023-07-13T12:47:25;29.70;99.90
51035;DHT22;37062;52.546;13.230;2023-07-13T12:49:56;29.70;99.90
51035;DHT22;37062;52.546;13.230;2023-07-13T12:52:29;29.70;99.90
51035;DHT22;37062;52.546;13.230;2023-07-13T12:55:03;29.50;99.90
51035;DHT22;37062;52.546;13.230;2023-07-13T12:57:40;29.50;99.90
51035;DHT22;37062;52.546;13.230;2023-07-13T13:00:22;29.40;99.90
51035;DHT22;37062;52.546;13.230;2023-07-13T13:02:53;29.40;99.90
51035;DHT22;37062;52.546;13.230;2023-07-13T13:05:34;29.50;99.90
51035;DHT22;37062;52.546;13.230;2023-07-13T13:08:04;29.60;99.90
51035;DHT22;37062;52.546;13.230;2023-07-13T13:10:32;29.70;99.90
51035;DHT22;37062;52.546;13.230;2023-07-13T13:13:04;29.80;99.90
51035;DHT22;37062;52.546;13.230;2023-07-13T13:15:32;29.70;99.90
51035;DHT22;37062;52.546;13.230;2023-07-13T13:18:00;29.60;99.90
51035;DHT22;37062;52.546;13.230;2023-07-13T13:20:29;29.60;99.90
51035;DHT22;37062;52.546;13.230;2023-07-13T13:22:57;29.70;99.90
51035;DHT22;37062;52.546;13.230;2023-07-13T13:25:25;29.70;99.90
51035;DHT22;37062;52.546;13.230;2023-07-13T13:27:53;29.70;99.90
51035;DHT22;37062;52.546;13.230;2023-07-13T13:30:24;29.70;99.90
51035;DHT22;37062;52.546;13.230;2023-07-13T13:32:52;29.80;99.90
51035;DHT22;37062;52.546;13.230;2023-07-13T13:35:20;29.80;99.90
51035;DHT22;37062;52.546;13.230;2023-07-13T13:37:49;29.80;99.90
51035;DHT22;37062;52.546;13.230;2023-07-13T13:40:20;29.70;99.90
51035;DHT22;37062;52.546;13.230;2023-07-13T13:42:50;29.70;99.90
51035;DHT22;37062;52.546;13.230;2023-07-13T13:45:19;29.70;99.90
51035;DHT22;37062;52.546;13.230;2023-07-13T13:47:49;29.70;99.90
51035;DHT22;37062;52.546;13.230;2023-07-13T13:50:21;29.70;99.90
51035;DHT22;37062;52.546;13.230;2023-07-13T13:52:50;29.60;99.90
51035;DHT22;37062;52.546;13.230;2023-07-13T13:55:20;29.60;99.90
51035;DHT22;37062;52.546;13.230;2023-07-13T13:57:50;29.60;99.90
51035;DHT22;37062;52.546;13.230;2023-07-13T14:00:20;29.50;99.90
51035;DHT22;37062;52.546;13.230;2023-07-13T14:02:50;29.40;99.90
51035;DHT22;37062;52.546;13.230;2023-07-13T14:05:22;29.30;99.90
51035;DHT22;37062;52.546;13.230;2023-07-13T14:07:51;29.20;99.90
51035;DHT22;37062;52.546;13.230;2023-07-13T14:10:20;29.10;99.90
51035;DHT22;37062;52.546;13.230;2023-07-13T14:12:51;29.20;99.90
51035;DHT22;37062;52.546;13.230;2023-07-13T14:15:22;29.30;99.90
51035;DHT22;37062;52.546;13.230;2023-07-13T14:17:52;29.20;99.90
51035;DHT22;37062;52.546;13.230;2023-07-13T14:20:23;29.10;99.90
51035;DHT22;37062;52.546;13.230;2023-07-13T14:22:52;29.10;99.90
51035;DHT22;37062;52.546;13.230;2023-07-13T14:25:22;29.10;99.90
51035;DHT22;37062;52.546;13.230;2023-07-13T14:27:53;29.10;99.90
51035;DHT22;37062;52.546;13.230;2023-07-13T14:30:25;29.10;99.90
51035;DHT22;37062;52.546;13.230;2023-07-13T14:32:55;29.10;99.90
51035;DHT22;37062;52.546;13.230;2023-07-13T14:35:23;29.10;99.90
51035;DHT22;37062;52.546;13.230;2023-07-13T14:37:51;29.10;99.90
51035;DHT22;37062;52.546;13.230;2023-07-13T14:40:24;29.20;99.90
51035;DHT22;37062;52.546;13.230;2023-07-13T14:42:53;29.10;99.90
51035;DHT22;37062;52.546;13.230;2023-07-13T14:45:21;29.10;99.90
51035;DHT22;37062;52.546;13.230;2023-07-13T14:47:50;29.10;99.90
51035;DHT22;37062;52.546;13.230;2023-07-13T14:50:23;29.00;99.90
51035;DHT22;37062;52.546;13.230;2023-07-13T14:52:52;28.90;99.90
51035;DHT22;37062;52.546;13.230;2023-07-13T14:55:20;28.90;99.90
51035;DHT22;37062;52.546;13.230;2023-07-13T14:57:49;28.80;99.90
51035;DHT22;37062;52.546;13.230;2023-07-13T15:00:20;28.90;99.90
51035;DHT22;37062;52.546;13.230;2023-07-13T15:02:49;28.90;99.90
51035;DHT22;37062;52.546;13.230;2023-07-13T15:05:22;28.90;99.90
51035;DHT22;37062;52.546;13.230;2023-07-13T15:07:52;28.80;99.90
51035;DHT22;37062;52.546;13.230;2023-07-13T15:10:22;28.80;99.90
51035;DHT22;37062;52.546;13.230;2023-07-13T15:12:52;28.90;99.90
51035;DHT22;37062;52.546;13.230;2023-07-13T15:15:20;28.80;99.90
51035;DHT22;37062;52.546;13.230;2023-07-13T15:17:49;28.70;99.90
51035;DHT22;37062;52.546;13.230;2023-07-13T15:20:25;28.80;99.90
51035;DHT22;37062;52.546;13.230;2023-07-13T15:22:56;28.80;99.90
51035;DHT22;37062;52.546;13.230;2023-07-13T15:25:26;28.80;99.90
51035;DHT22;37062;52.546;13.230;2023-07-13T15:27:56;28.90;99.90
51035;DHT22;37062;52.546;13.230;2023-07-13T15:30:25;28.90;99.90
51035;DHT22;37062;52.546;13.230;2023-07-13T15:32:56;28.80;99.90
51035;DHT22;37062;52.546;13.230;2023-07-13T15:35:29;28.80;99.90